Startpagina
METAR-TAF:

METAR-TAF

Vliegvelden :

Rarotonga, Cookeilanden

breedte: 21-12S, lengte: 159-49W, hoogte: 7 m

Actueel weer

Dit bericht is 42 minuten geleden gemaakt, om 14:30 UTC
Wind 3 kt uit het oosten, variërend tussen het oosten en het zuidoosten
Temperatuur 24°C
Vochtigheid 89%
Druk 1015 hPa
Zicht 10 km of meer
lichte regen

METAR: NCRG 051430Z AUTO 10003KT 080V140 9999 -RA FEW009/// SCT030/// BKN046/// 24/22 Q1015 REDZ

Tijdstip: 05:12 (15:12 UTC)

Verwachting

Dit bericht is 4 uur en het 7 minuten geleden gemaakt, om 11:05 UTC
Verwachting geldig van 05 om 12 UTC tot 06 om 12 UTC
Wind 8 kt uit het oosten
Zicht 10 km of meer
Weinig wolken op 2000 ft
Gebroken wolken op 3400 ft

TAF: NCRG 051105Z 0512/0612 09008KT 9999 FEW020 BKN034

Waarnemingen en weersverwachtingen van meer dan 4000 vliegvelden (METAR en TAF).

De beschikbare stations zijn de gele en rode punten op de kaart.

Ga met uw muis naar het station om de naam te zien.

Klik dan om waarnemingen en weersverwachtingen te zien.

kaart wijzigen: klik op de groene knoppen met een zwart kruis om in te zoomen, op de groene knop met een streepje om uit te zoomen of op de groene pijlen voor aangrenzende kaarten.


METAR-TAF: